sensor_id;sensor_type;location;lat;lon;timestamp;P1;durP1;ratioP1;P2;durP2;ratioP2
22191;SDS011;11261;52.456;10.850;2022-12-26T00:01:26;4.43;;;2.17;;
22191;SDS011;11261;52.456;10.850;2022-12-26T00:03:57;4.65;;;2.65;;
22191;SDS011;11261;52.456;10.850;2022-12-26T00:06:26;5.72;;;3.42;;
22191;SDS011;11261;52.456;10.850;2022-12-26T00:08:56;5.90;;;2.58;;
22191;SDS011;11261;52.456;10.850;2022-12-26T00:11:25;4.93;;;2.85;;
22191;SDS011;11261;52.456;10.850;2022-12-26T00:13:53;3.28;;;2.67;;
22191;SDS011;11261;52.456;10.850;2022-12-26T00:16:22;2.92;;;2.28;;
22191;SDS011;11261;52.456;10.850;2022-12-26T00:18:52;2.90;;;1.45;;
22191;SDS011;11261;52.456;10.850;2022-12-26T00:21:22;4.40;;;2.63;;
22191;SDS011;11261;52.456;10.850;2022-12-26T00:23:53;5.40;;;2.88;;
22191;SDS011;11261;52.456;10.850;2022-12-26T00:26:23;4.05;;;2.80;;
22191;SDS011;11261;52.456;10.850;2022-12-26T00:28:53;4.63;;;2.83;;
22191;SDS011;11261;52.456;10.850;2022-12-26T00:31:23;5.22;;;3.38;;
22191;SDS011;11261;52.456;10.850;2022-12-26T00:33:53;5.80;;;3.30;;
22191;SDS011;11261;52.456;10.850;2022-12-26T00:36:24;5.72;;;3.30;;
22191;SDS011;11261;52.456;10.850;2022-12-26T00:38:55;8.60;;;3.40;;
22191;SDS011;11261;52.456;10.850;2022-12-26T00:41:24;7.13;;;3.75;;
22191;SDS011;11261;52.456;10.850;2022-12-26T00:43:53;7.22;;;3.17;;
22191;SDS011;11261;52.456;10.850;2022-12-26T00:46:22;5.28;;;3.22;;
22191;SDS011;11261;52.456;10.850;2022-12-26T00:48:51;4.95;;;3.00;;
22191;SDS011;11261;52.456;10.850;2022-12-26T00:51:19;5.65;;;3.35;;
22191;SDS011;11261;52.456;10.850;2022-12-26T00:53:48;7.53;;;3.00;;
22191;SDS011;11261;52.456;10.850;2022-12-26T00:56:17;4.72;;;3.20;;
22191;SDS011;11261;52.456;10.850;2022-12-26T00:58:46;5.32;;;3.25;;
22191;SDS011;11261;52.456;10.850;2022-12-26T01:01:15;6.43;;;3.17;;
22191;SDS011;11261;52.456;10.850;2022-12-26T01:03:46;5.97;;;2.97;;
22191;SDS011;11261;52.456;10.850;2022-12-26T01:06:16;5.43;;;2.97;;
22191;SDS011;11261;52.456;10.850;2022-12-26T01:08:44;4.97;;;3.15;;
22191;SDS011;11261;52.456;10.850;2022-12-26T01:11:14;5.60;;;2.60;;
22191;SDS011;11261;52.456;10.850;2022-12-26T01:14:03;3.08;;;2.40;;
22191;SDS011;11261;52.456;10.850;2022-12-26T01:16:32;5.18;;;2.75;;
22191;SDS011;11261;52.456;10.850;2022-12-26T01:19:00;4.35;;;2.28;;
22191;SDS011;11261;52.456;10.850;2022-12-26T01:21:28;4.03;;;2.50;;
22191;SDS011;11261;52.456;10.850;2022-12-26T01:23:57;4.63;;;2.55;;
22191;SDS011;11261;52.456;10.850;2022-12-26T01:26:26;4.15;;;2.47;;
22191;SDS011;11261;52.456;10.850;2022-12-26T01:28:55;5.22;;;2.78;;
22191;SDS011;11261;52.456;10.850;2022-12-26T01:31:23;7.47;;;3.45;;
22191;SDS011;11261;52.456;10.850;2022-12-26T01:33:52;5.30;;;2.65;;
22191;SDS011;11261;52.456;10.850;2022-12-26T01:36:20;5.22;;;3.00;;
22191;SDS011;11261;52.456;10.850;2022-12-26T01:38:48;1.35;;;1.23;;
22191;SDS011;11261;52.456;10.850;2022-12-26T01:41:16;4.00;;;2.80;;
22191;SDS011;11261;52.456;10.850;2022-12-26T01:43:48;4.05;;;2.42;;
22191;SDS011;11261;52.456;10.850;2022-12-26T01:46:23;4.05;;;2.38;;
22191;SDS011;11261;52.456;10.850;2022-12-26T01:48:55;3.70;;;2.33;;
22191;SDS011;11261;52.456;10.850;2022-12-26T01:51:27;4.05;;;2.53;;
22191;SDS011;11261;52.456;10.850;2022-12-26T01:54:00;5.50;;;3.08;;
22191;SDS011;11261;52.456;10.850;2022-12-26T01:56:52;6.80;;;3.03;;
22191;SDS011;11261;52.456;10.850;2022-12-26T01:59:23;3.42;;;2.40;;
22191;SDS011;11261;52.456;10.850;2022-12-26T02:01:55;4.68;;;3.00;;
22191;SDS011;11261;52.456;10.850;2022-12-26T02:04:26;4.35;;;2.60;;
22191;SDS011;11261;52.456;10.850;2022-12-26T02:07:14;5.57;;;3.53;;
22191;SDS011;11261;52.456;10.850;2022-12-26T02:09:43;5.45;;;2.67;;
22191;SDS011;11261;52.456;10.850;2022-12-26T02:12:13;4.15;;;2.70;;
22191;SDS011;11261;52.456;10.850;2022-12-26T02:15:06;3.72;;;2.72;;
22191;SDS011;11261;52.456;10.850;2022-12-26T02:17:37;4.15;;;3.00;;
22191;SDS011;11261;52.456;10.850;2022-12-26T02:20:09;5.20;;;3.40;;
22191;SDS011;11261;52.456;10.850;2022-12-26T02:22:57;6.40;;;3.17;;
22191;SDS011;11261;52.456;10.850;2022-12-26T02:25:58;4.47;;;3.30;;
22191;SDS011;11261;52.456;10.850;2022-12-26T02:29:08;4.95;;;2.83;;
22191;SDS011;11261;52.456;10.850;2022-12-26T02:32:07;4.57;;;2.92;;
22191;SDS011;11261;52.456;10.850;2022-12-26T02:34:44;3.58;;;2.97;;
22191;SDS011;11261;52.456;10.850;2022-12-26T02:37:28;5.20;;;3.60;;
22191;SDS011;11261;52.456;10.850;2022-12-26T02:40:24;6.22;;;2.80;;
22191;SDS011;11261;52.456;10.850;2022-12-26T02:43:01;4.43;;;2.97;;
22191;SDS011;11261;52.456;10.850;2022-12-26T02:45:38;3.65;;;2.40;;
22191;SDS011;11261;52.456;10.850;2022-12-26T02:48:32;5.20;;;2.33;;
22191;SDS011;11261;52.456;10.850;2022-12-26T02:51:10;2.13;;;1.67;;
22191;SDS011;11261;52.456;10.850;2022-12-26T02:54:06;3.35;;;2.13;;
22191;SDS011;11261;52.456;10.850;2022-12-26T02:57:01;3.78;;;2.33;;
22191;SDS011;11261;52.456;10.850;2022-12-26T02:59:51;4.43;;;2.70;;
22191;SDS011;11261;52.456;10.850;2022-12-26T03:02:43;3.05;;;2.05;;
22191;SDS011;11261;52.456;10.850;2022-12-26T03:05:35;2.70;;;2.35;;
22191;SDS011;11261;52.456;10.850;2022-12-26T03:08:24;2.58;;;2.15;;
22191;SDS011;11261;52.456;10.850;2022-12-26T03:11:12;3.33;;;2.50;;
22191;SDS011;11261;52.456;10.850;2022-12-26T03:14:02;3.53;;;2.20;;
22191;SDS011;11261;52.456;10.850;2022-12-26T03:16:38;4.25;;;2.15;;
22191;SDS011;11261;52.456;10.850;2022-12-26T03:19:24;3.28;;;2.47;;
22191;SDS011;11261;52.456;10.850;2022-12-26T03:21:56;3.75;;;2.50;;
22191;SDS011;11261;52.456;10.850;2022-12-26T03:24:27;4.05;;;2.90;;
22191;SDS011;11261;52.456;10.850;2022-12-26T03:27:16;2.33;;;2.05;;
22191;SDS011;11261;52.456;10.850;2022-12-26T03:29:44;4.85;;;2.95;;
22191;SDS011;11261;52.456;10.850;2022-12-26T03:32:29;8.98;;;3.47;;
22191;SDS011;11261;52.456;10.850;2022-12-26T03:35:10;4.63;;;3.40;;
22191;SDS011;11261;52.456;10.850;2022-12-26T03:37:44;5.78;;;3.17;;
22191;SDS011;11261;52.456;10.850;2022-12-26T03:40:24;5.18;;;3.53;;
22191;SDS011;11261;52.456;10.850;2022-12-26T03:43:20;4.80;;;3.17;;
22191;SDS011;11261;52.456;10.850;2022-12-26T03:46:16;4.15;;;2.83;;
22191;SDS011;11261;52.456;10.850;2022-12-26T03:49:10;7.63;;;4.25;;
22191;SDS011;11261;52.456;10.850;2022-12-26T03:52:00;6.38;;;3.63;;
22191;SDS011;11261;52.456;10.850;2022-12-26T03:54:53;7.88;;;4.32;;
22191;SDS011;11261;52.456;10.850;2022-12-26T03:57:47;6.45;;;4.50;;
22191;SDS011;11261;52.456;10.850;2022-12-26T04:00:37;6.40;;;4.65;;
22191;SDS011;11261;52.456;10.850;2022-12-26T04:03:25;6.25;;;4.50;;
22191;SDS011;11261;52.456;10.850;2022-12-26T04:06:17;6.13;;;4.35;;
22191;SDS011;11261;52.456;10.850;2022-12-26T04:09:07;7.18;;;4.13;;
22191;SDS011;11261;52.456;10.850;2022-12-26T04:11:57;8.70;;;4.57;;
22191;SDS011;11261;52.456;10.850;2022-12-26T04:14:46;8.90;;;4.55;;
22191;SDS011;11261;52.456;10.850;2022-12-26T04:17:37;10.93;;;4.72;;
22191;SDS011;11261;52.456;10.850;2022-12-26T04:20:29;8.15;;;5.47;;
22191;SDS011;11261;52.456;10.850;2022-12-26T04:23:03;7.00;;;4.78;;
22191;SDS011;11261;52.456;10.850;2022-12-26T04:25:54;6.85;;;4.40;;
22191;SDS011;11261;52.456;10.850;2022-12-26T04:28:46;3.72;;;2.53;;
22191;SDS011;11261;52.456;10.850;2022-12-26T04:31:33;7.50;;;4.10;;
22191;SDS011;11261;52.456;10.850;2022-12-26T04:34:24;7.55;;;3.85;;
22191;SDS011;11261;52.456;10.850;2022-12-26T04:37:17;6.68;;;4.78;;
22191;SDS011;11261;52.456;10.850;2022-12-26T04:40:06;8.05;;;5.43;;
22191;SDS011;11261;52.456;10.850;2022-12-26T04:42:56;7.13;;;4.90;;
22191;SDS011;11261;52.456;10.850;2022-12-26T04:46:04;7.88;;;4.93;;
22191;SDS011;11261;52.456;10.850;2022-12-26T04:48:33;7.15;;;4.85;;
22191;SDS011;11261;52.456;10.850;2022-12-26T04:51:31;8.98;;;5.68;;
22191;SDS011;11261;52.456;10.850;2022-12-26T04:53:59;8.60;;;5.32;;
22191;SDS011;11261;52.456;10.850;2022-12-26T04:56:27;8.65;;;5.60;;
22191;SDS011;11261;52.456;10.850;2022-12-26T04:58:56;8.30;;;5.28;;
22191;SDS011;11261;52.456;10.850;2022-12-26T05:01:26;10.48;;;5.57;;
22191;SDS011;11261;52.456;10.850;2022-12-26T05:04:12;7.20;;;4.90;;
22191;SDS011;11261;52.456;10.850;2022-12-26T05:06:58;8.30;;;5.22;;
22191;SDS011;11261;52.456;10.850;2022-12-26T05:09:47;8.18;;;4.82;;
22191;SDS011;11261;52.456;10.850;2022-12-26T05:12:16;10.73;;;6.05;;
22191;SDS011;11261;52.456;10.850;2022-12-26T05:14:44;8.25;;;5.20;;
22191;SDS011;11261;52.456;10.850;2022-12-26T05:17:14;8.32;;;5.13;;
22191;SDS011;11261;52.456;10.850;2022-12-26T05:20:00;10.52;;;5.45;;
22191;SDS011;11261;52.456;10.850;2022-12-26T05:22:46;7.78;;;5.03;;
22191;SDS011;11261;52.456;10.850;2022-12-26T05:25:32;7.85;;;5.18;;
22191;SDS011;11261;52.456;10.850;2022-12-26T05:28:21;7.93;;;5.25;;
22191;SDS011;11261;52.456;10.850;2022-12-26T05:31:07;8.85;;;4.97;;
22191;SDS011;11261;52.456;10.850;2022-12-26T05:33:37;7.47;;;5.20;;
22191;SDS011;11261;52.456;10.850;2022-12-26T05:36:23;8.93;;;5.80;;
22191;SDS011;11261;52.456;10.850;2022-12-26T05:38:55;9.60;;;6.30;;
22191;SDS011;11261;52.456;10.850;2022-12-26T05:41:23;8.32;;;5.68;;
22191;SDS011;11261;52.456;10.850;2022-12-26T05:43:51;10.05;;;6.22;;
22191;SDS011;11261;52.456;10.850;2022-12-26T05:46:20;9.75;;;5.47;;
22191;SDS011;11261;52.456;10.850;2022-12-26T05:48:50;12.73;;;6.43;;
22191;SDS011;11261;52.456;10.850;2022-12-26T05:51:18;10.10;;;6.43;;
22191;SDS011;11261;52.456;10.850;2022-12-26T05:53:46;10.57;;;6.70;;
22191;SDS011;11261;52.456;10.850;2022-12-26T05:56:15;9.52;;;5.90;;
22191;SDS011;11261;52.456;10.850;2022-12-26T05:58:44;9.93;;;6.20;;
22191;SDS011;11261;52.456;10.850;2022-12-26T06:01:14;10.88;;;6.50;;
22191;SDS011;11261;52.456;10.850;2022-12-26T06:03:45;9.18;;;5.95;;
22191;SDS011;11261;52.456;10.850;2022-12-26T06:06:15;9.07;;;6.15;;
22191;SDS011;11261;52.456;10.850;2022-12-26T06:08:46;9.07;;;6.60;;
22191;SDS011;11261;52.456;10.850;2022-12-26T06:11:15;8.63;;;5.55;;
22191;SDS011;11261;52.456;10.850;2022-12-26T06:13:44;10.48;;;5.57;;
22191;SDS011;11261;52.456;10.850;2022-12-26T06:16:13;9.23;;;5.90;;
22191;SDS011;11261;52.456;10.850;2022-12-26T06:18:43;7.85;;;5.80;;
22191;SDS011;11261;52.456;10.850;2022-12-26T06:21:13;7.50;;;5.18;;
22191;SDS011;11261;52.456;10.850;2022-12-26T06:23:44;7.85;;;5.40;;
22191;SDS011;11261;52.456;10.850;2022-12-26T06:26:12;5.93;;;2.47;;
22191;SDS011;11261;52.456;10.850;2022-12-26T06:28:41;7.60;;;5.18;;
22191;SDS011;11261;52.456;10.850;2022-12-26T06:31:11;10.77;;;6.70;;
22191;SDS011;11261;52.456;10.850;2022-12-26T06:33:41;8.63;;;5.50;;
22191;SDS011;11261;52.456;10.850;2022-12-26T06:36:10;9.55;;;5.80;;
22191;SDS011;11261;52.456;10.850;2022-12-26T06:38:40;10.35;;;5.43;;
22191;SDS011;11261;52.456;10.850;2022-12-26T06:41:11;7.97;;;5.30;;
22191;SDS011;11261;52.456;10.850;2022-12-26T06:43:41;9.63;;;5.68;;
22191;SDS011;11261;52.456;10.850;2022-12-26T06:46:11;11.23;;;5.57;;
22191;SDS011;11261;52.456;10.850;2022-12-26T06:48:40;6.00;;;4.07;;
22191;SDS011;11261;52.456;10.850;2022-12-26T06:51:10;8.55;;;5.10;;
22191;SDS011;11261;52.456;10.850;2022-12-26T06:53:39;8.93;;;5.45;;
22191;SDS011;11261;52.456;10.850;2022-12-26T06:56:07;8.80;;;4.78;;
22191;SDS011;11261;52.456;10.850;2022-12-26T06:58:39;10.38;;;5.88;;
22191;SDS011;11261;52.456;10.850;2022-12-26T07:01:08;9.77;;;5.68;;
22191;SDS011;11261;52.456;10.850;2022-12-26T07:03:38;7.93;;;4.97;;
22191;SDS011;11261;52.456;10.850;2022-12-26T07:06:18;10.35;;;6.25;;
22191;SDS011;11261;52.456;10.850;2022-12-26T07:08:49;9.35;;;4.95;;
22191;SDS011;11261;52.456;10.850;2022-12-26T07:11:20;11.13;;;5.30;;
22191;SDS011;11261;52.456;10.850;2022-12-26T07:13:50;7.38;;;4.68;;
22191;SDS011;11261;52.456;10.850;2022-12-26T07:16:19;7.18;;;5.05;;
22191;SDS011;11261;52.456;10.850;2022-12-26T07:18:50;8.20;;;4.70;;
22191;SDS011;11261;52.456;10.850;2022-12-26T07:21:19;8.32;;;4.68;;
22191;SDS011;11261;52.456;10.850;2022-12-26T07:23:48;7.72;;;4.43;;
22191;SDS011;11261;52.456;10.850;2022-12-26T07:26:16;7.05;;;4.53;;
22191;SDS011;11261;52.456;10.850;2022-12-26T07:28:46;8.00;;;4.93;;
22191;SDS011;11261;52.456;10.850;2022-12-26T07:31:15;6.35;;;4.18;;
22191;SDS011;11261;52.456;10.850;2022-12-26T07:33:45;6.25;;;3.85;;
22191;SDS011;11261;52.456;10.850;2022-12-26T07:36:15;4.18;;;3.17;;
22191;SDS011;11261;52.456;10.850;2022-12-26T07:38:43;7.25;;;4.40;;
22191;SDS011;11261;52.456;10.850;2022-12-26T07:41:12;4.88;;;3.50;;
22191;SDS011;11261;52.456;10.850;2022-12-26T07:43:59;4.40;;;2.85;;
22191;SDS011;11261;52.456;10.850;2022-12-26T07:46:28;4.90;;;3.03;;
22191;SDS011;11261;52.456;10.850;2022-12-26T07:48:56;4.05;;;2.83;;
22191;SDS011;11261;52.456;10.850;2022-12-26T07:51:25;6.35;;;3.47;;
22191;SDS011;11261;52.456;10.850;2022-12-26T07:53:53;4.22;;;3.25;;
22191;SDS011;11261;52.456;10.850;2022-12-26T07:56:21;6.05;;;3.65;;
22191;SDS011;11261;52.456;10.850;2022-12-26T07:58:51;4.20;;;2.92;;
22191;SDS011;11261;52.456;10.850;2022-12-26T08:01:20;4.45;;;3.30;;
22191;SDS011;11261;52.456;10.850;2022-12-26T08:03:49;5.95;;;3.53;;
22191;SDS011;11261;52.456;10.850;2022-12-26T08:06:18;6.13;;;3.72;;
22191;SDS011;11261;52.456;10.850;2022-12-26T08:08:46;7.40;;;4.05;;
22191;SDS011;11261;52.456;10.850;2022-12-26T08:11:17;5.13;;;3.47;;
22191;SDS011;11261;52.456;10.850;2022-12-26T08:13:47;5.15;;;3.10;;
22191;SDS011;11261;52.456;10.850;2022-12-26T08:16:16;6.72;;;3.55;;
22191;SDS011;11261;52.456;10.850;2022-12-26T08:18:46;4.97;;;3.17;;
22191;SDS011;11261;52.456;10.850;2022-12-26T08:21:15;5.32;;;3.22;;
22191;SDS011;11261;52.456;10.850;2022-12-26T08:23:43;5.05;;;3.53;;
22191;SDS011;11261;52.456;10.850;2022-12-26T08:26:13;5.47;;;3.42;;
22191;SDS011;11261;52.456;10.850;2022-12-26T08:28:46;6.25;;;4.20;;
22191;SDS011;11261;52.456;10.850;2022-12-26T08:31:14;4.00;;;2.83;;
22191;SDS011;11261;52.456;10.850;2022-12-26T08:33:43;6.35;;;3.63;;
22191;SDS011;11261;52.456;10.850;2022-12-26T08:36:13;6.13;;;3.60;;
22191;SDS011;11261;52.456;10.850;2022-12-26T08:38:44;4.80;;;3.13;;
22191;SDS011;11261;52.456;10.850;2022-12-26T08:41:13;4.55;;;3.05;;
22191;SDS011;11261;52.456;10.850;2022-12-26T08:43:42;5.22;;;3.10;;
22191;SDS011;11261;52.456;10.850;2022-12-26T08:46:33;3.15;;;1.98;;
22191;SDS011;11261;52.456;10.850;2022-12-26T08:49:02;5.20;;;2.88;;
22191;SDS011;11261;52.456;10.850;2022-12-26T08:51:31;6.10;;;3.10;;
22191;SDS011;11261;52.456;10.850;2022-12-26T08:53:59;5.35;;;3.05;;
22191;SDS011;11261;52.456;10.850;2022-12-26T08:56:27;4.80;;;2.83;;
22191;SDS011;11261;52.456;10.850;2022-12-26T08:58:56;5.07;;;3.35;;
22191;SDS011;11261;52.456;10.850;2022-12-26T09:01:25;5.63;;;3.15;;
22191;SDS011;11261;52.456;10.850;2022-12-26T09:03:55;5.13;;;3.33;;
22191;SDS011;11261;52.456;10.850;2022-12-26T09:06:24;3.13;;;2.38;;
22191;SDS011;11261;52.456;10.850;2022-12-26T09:08:54;5.95;;;3.63;;
22191;SDS011;11261;52.456;10.850;2022-12-26T09:11:23;4.63;;;3.28;;
22191;SDS011;11261;52.456;10.850;2022-12-26T09:13:53;5.85;;;3.20;;
22191;SDS011;11261;52.456;10.850;2022-12-26T09:16:22;6.22;;;4.18;;
22191;SDS011;11261;52.456;10.850;2022-12-26T09:18:58;6.40;;;3.60;;
22191;SDS011;11261;52.456;10.850;2022-12-26T09:21:27;4.82;;;3.50;;
22191;SDS011;11261;52.456;10.850;2022-12-26T09:23:58;5.20;;;3.30;;
22191;SDS011;11261;52.456;10.850;2022-12-26T09:26:27;6.03;;;3.65;;
22191;SDS011;11261;52.456;10.850;2022-12-26T09:28:56;7.43;;;4.32;;
22191;SDS011;11261;52.456;10.850;2022-12-26T09:31:25;4.57;;;3.15;;
22191;SDS011;11261;52.456;10.850;2022-12-26T09:33:56;5.75;;;3.95;;
22191;SDS011;11261;52.456;10.850;2022-12-26T09:36:25;6.72;;;3.80;;
22191;SDS011;11261;52.456;10.850;2022-12-26T09:38:56;5.28;;;3.50;;
22191;SDS011;11261;52.456;10.850;2022-12-26T09:41:38;5.80;;;3.40;;
22191;SDS011;11261;52.456;10.850;2022-12-26T09:44:21;6.00;;;3.83;;
22191;SDS011;11261;52.456;10.850;2022-12-26T09:46:58;7.63;;;4.05;;
22191;SDS011;11261;52.456;10.850;2022-12-26T09:49:35;5.63;;;3.83;;
22191;SDS011;11261;52.456;10.850;2022-12-26T09:52:09;5.55;;;3.25;;
22191;SDS011;11261;52.456;10.850;2022-12-26T09:54:42;5.50;;;3.05;;
22191;SDS011;11261;52.456;10.850;2022-12-26T09:57:16;7.43;;;4.57;;
22191;SDS011;11261;52.456;10.850;2022-12-26T09:59:47;5.65;;;2.83;;
22191;SDS011;11261;52.456;10.850;2022-12-26T10:02:22;4.13;;;3.10;;
22191;SDS011;11261;52.456;10.850;2022-12-26T10:04:52;5.65;;;3.30;;
22191;SDS011;11261;52.456;10.850;2022-12-26T10:07:23;12.63;;;3.58;;
22191;SDS011;11261;52.456;10.850;2022-12-26T10:10:00;5.68;;;3.33;;
22191;SDS011;11261;52.456;10.850;2022-12-26T10:12:35;5.93;;;3.10;;
22191;SDS011;11261;52.456;10.850;2022-12-26T10:15:11;4.93;;;3.25;;
22191;SDS011;11261;52.456;10.850;2022-12-26T10:17:48;3.05;;;2.08;;
22191;SDS011;11261;52.456;10.850;2022-12-26T10:20:21;5.70;;;3.42;;
22191;SDS011;11261;52.456;10.850;2022-12-26T10:25:57;5.25;;;3.10;;
22191;SDS011;11261;52.456;10.850;2022-12-26T10:28:33;4.47;;;3.03;;
22191;SDS011;11261;52.456;10.850;2022-12-26T10:31:07;4.07;;;3.03;;
22191;SDS011;11261;52.456;10.850;2022-12-26T10:33:42;7.68;;;4.05;;
22191;SDS011;11261;52.456;10.850;2022-12-26T10:36:15;6.15;;;3.35;;
22191;SDS011;11261;52.456;10.850;2022-12-26T10:38:50;5.65;;;3.28;;
22191;SDS011;11261;52.456;10.850;2022-12-26T10:41:24;9.27;;;3.65;;
22191;SDS011;11261;52.456;10.850;2022-12-26T10:43:54;5.38;;;3.35;;
22191;SDS011;11261;52.456;10.850;2022-12-26T10:46:45;5.03;;;3.30;;
22191;SDS011;11261;52.456;10.850;2022-12-26T10:49:23;4.13;;;3.03;;
22191;SDS011;11261;52.456;10.850;2022-12-26T10:51:54;4.63;;;3.28;;
22191;SDS011;11261;52.456;10.850;2022-12-26T10:54:26;4.97;;;3.33;;
22191;SDS011;11261;52.456;10.850;2022-12-26T10:56:58;4.82;;;2.75;;
22191;SDS011;11261;52.456;10.850;2022-12-26T11:02:15;5.00;;;3.55;;
22191;SDS011;11261;52.456;10.850;2022-12-26T11:04:57;6.68;;;3.78;;
22191;SDS011;11261;52.456;10.850;2022-12-26T11:07:53;2.33;;;1.83;;
22191;SDS011;11261;52.456;10.850;2022-12-26T11:10:24;5.22;;;3.03;;
22191;SDS011;11261;52.456;10.850;2022-12-26T11:12:58;7.25;;;3.88;;
22191;SDS011;11261;52.456;10.850;2022-12-26T11:15:29;5.18;;;3.00;;
22191;SDS011;11261;52.456;10.850;2022-12-26T11:18:07;5.35;;;3.50;;
22191;SDS011;11261;52.456;10.850;2022-12-26T11:20:43;4.47;;;3.40;;
22191;SDS011;11261;52.456;10.850;2022-12-26T11:23:17;5.28;;;2.97;;
22191;SDS011;11261;52.456;10.850;2022-12-26T11:25:52;1.80;;;1.38;;
22191;SDS011;11261;52.456;10.850;2022-12-26T11:28:27;5.80;;;3.35;;
22191;SDS011;11261;52.456;10.850;2022-12-26T11:30:56;3.00;;;2.20;;
22191;SDS011;11261;52.456;10.850;2022-12-26T11:33:27;1.27;;;0.90;;
22191;SDS011;11261;52.456;10.850;2022-12-26T11:36:02;3.80;;;2.30;;
22191;SDS011;11261;52.456;10.850;2022-12-26T11:38:43;5.60;;;3.72;;
22191;SDS011;11261;52.456;10.850;2022-12-26T11:41:16;5.00;;;2.85;;
22191;SDS011;11261;52.456;10.850;2022-12-26T11:44:01;4.28;;;2.72;;
22191;SDS011;11261;52.456;10.850;2022-12-26T11:46:34;3.50;;;2.67;;
22191;SDS011;11261;52.456;10.850;2022-12-26T11:49:05;6.45;;;3.13;;
22191;SDS011;11261;52.456;10.850;2022-12-26T11:51:35;4.55;;;3.20;;
22191;SDS011;11261;52.456;10.850;2022-12-26T11:54:20;3.88;;;2.75;;
22191;SDS011;11261;52.456;10.850;2022-12-26T11:57:01;3.22;;;2.47;;
22191;SDS011;11261;52.456;10.850;2022-12-26T11:59:43;4.70;;;3.30;;
22191;SDS011;11261;52.456;10.850;2022-12-26T12:02:20;4.32;;;3.33;;
22191;SDS011;11261;52.456;10.850;2022-12-26T12:04:54;2.60;;;2.03;;
22191;SDS011;11261;52.456;10.850;2022-12-26T12:13:24;5.38;;;3.53;;
22191;SDS011;11261;52.456;10.850;2022-12-26T12:16:05;4.82;;;3.08;;
22191;SDS011;11261;52.456;10.850;2022-12-26T12:18:43;4.20;;;3.50;;
22191;SDS011;11261;52.456;10.850;2022-12-26T12:21:20;3.38;;;2.60;;
22191;SDS011;11261;52.456;10.850;2022-12-26T12:23:58;3.35;;;2.33;;
22191;SDS011;11261;52.456;10.850;2022-12-26T12:26:53;4.05;;;3.10;;
22191;SDS011;11261;52.456;10.850;2022-12-26T12:29:33;3.72;;;2.65;;
22191;SDS011;11261;52.456;10.850;2022-12-26T12:32:20;4.68;;;2.53;;
22191;SDS011;11261;52.456;10.850;2022-12-26T12:34:58;2.90;;;2.70;;
22191;SDS011;11261;52.456;10.850;2022-12-26T12:37:48;1.73;;;1.60;;
22191;SDS011;11261;52.456;10.850;2022-12-26T12:40:28;3.25;;;2.75;;
22191;SDS011;11261;52.456;10.850;2022-12-26T12:43:02;3.60;;;2.65;;
22191;SDS011;11261;52.456;10.850;2022-12-26T12:45:39;3.60;;;2.53;;
22191;SDS011;11261;52.456;10.850;2022-12-26T12:48:29;3.53;;;2.47;;
22191;SDS011;11261;52.456;10.850;2022-12-26T12:51:10;1.45;;;1.08;;
22191;SDS011;11261;52.456;10.850;2022-12-26T12:56:48;2.67;;;2.30;;
22191;SDS011;11261;52.456;10.850;2022-12-26T12:59:24;3.38;;;2.47;;
22191;SDS011;11261;52.456;10.850;2022-12-26T13:01:58;3.42;;;2.28;;
22191;SDS011;11261;52.456;10.850;2022-12-26T13:04:40;4.40;;;2.20;;
22191;SDS011;11261;52.456;10.850;2022-12-26T13:07:11;2.70;;;2.03;;
22191;SDS011;11261;52.456;10.850;2022-12-26T13:09:45;1.65;;;1.00;;
22191;SDS011;11261;52.456;10.850;2022-12-26T13:12:18;2.03;;;1.77;;
22191;SDS011;11261;52.456;10.850;2022-12-26T13:14:49;3.72;;;2.03;;
22191;SDS011;11261;52.456;10.850;2022-12-26T13:17:21;1.92;;;1.17;;
22191;SDS011;11261;52.456;10.850;2022-12-26T13:19:55;2.47;;;1.52;;
22191;SDS011;11261;52.456;10.850;2022-12-26T13:22:29;1.85;;;1.75;;
22191;SDS011;11261;52.456;10.850;2022-12-26T13:25:20;1.65;;;1.30;;
22191;SDS011;11261;52.456;10.850;2022-12-26T13:27:52;2.30;;;1.50;;
22191;SDS011;11261;52.456;10.850;2022-12-26T13:30:35;2.75;;;2.03;;
22191;SDS011;11261;52.456;10.850;2022-12-26T13:33:03;2.10;;;1.90;;
22191;SDS011;11261;52.456;10.850;2022-12-26T13:35:53;1.10;;;1.05;;
22191;SDS011;11261;52.456;10.850;2022-12-26T13:38:23;2.08;;;1.70;;
22191;SDS011;11261;52.456;10.850;2022-12-26T13:40:54;2.25;;;1.80;;
22191;SDS011;11261;52.456;10.850;2022-12-26T13:43:59;14.90;;;1.77;;
22191;SDS011;11261;52.456;10.850;2022-12-26T13:46:33;1.58;;;1.45;;
22191;SDS011;11261;52.456;10.850;2022-12-26T13:49:04;2.25;;;2.05;;
22191;SDS011;11261;52.456;10.850;2022-12-26T13:51:54;2.88;;;1.85;;
22191;SDS011;11261;52.456;10.850;2022-12-26T13:54:25;2.33;;;1.65;;
22191;SDS011;11261;52.456;10.850;2022-12-26T13:57:07;1.90;;;1.55;;
22191;SDS011;11261;52.456;10.850;2022-12-26T13:59:57;1.98;;;1.42;;
22191;SDS011;11261;52.456;10.850;2022-12-26T14:02:47;1.60;;;1.35;;
22191;SDS011;11261;52.456;10.850;2022-12-26T14:05:47;1.05;;;0.85;;
22191;SDS011;11261;52.456;10.850;2022-12-26T14:08:29;0.85;;;0.65;;
22191;SDS011;11261;52.456;10.850;2022-12-26T14:11:06;1.45;;;0.95;;
22191;SDS011;11261;52.456;10.850;2022-12-26T14:13:52;1.63;;;1.52;;
22191;SDS011;11261;52.456;10.850;2022-12-26T14:16:32;3.30;;;1.67;;
22191;SDS011;11261;52.456;10.850;2022-12-26T14:19:09;2.50;;;1.10;;
22191;SDS011;11261;52.456;10.850;2022-12-26T14:21:47;1.63;;;1.35;;
22191;SDS011;11261;52.456;10.850;2022-12-26T14:24:27;1.02;;;0.90;;
22191;SDS011;11261;52.456;10.850;2022-12-26T14:27:11;2.88;;;1.40;;
22191;SDS011;11261;52.456;10.850;2022-12-26T14:29:54;1.42;;;1.10;;
22191;SDS011;11261;52.456;10.850;2022-12-26T14:32:31;1.30;;;1.20;;
22191;SDS011;11261;52.456;10.850;2022-12-26T14:35:08;2.97;;;1.17;;
22191;SDS011;11261;52.456;10.850;2022-12-26T14:37:47;1.95;;;1.20;;
22191;SDS011;11261;52.456;10.850;2022-12-26T14:40:27;1.77;;;0.80;;
22191;SDS011;11261;52.456;10.850;2022-12-26T14:43:01;0.63;;;0.50;;
22191;SDS011;11261;52.456;10.850;2022-12-26T14:45:49;2.67;;;0.73;;
22191;SDS011;11261;52.456;10.850;2022-12-26T14:51:30;0.68;;;0.32;;
22191;SDS011;11261;52.456;10.850;2022-12-26T15:00:23;0.32;;;0.32;;
22191;SDS011;11261;52.456;10.850;2022-12-26T15:05:50;0.80;;;0.60;;
22191;SDS011;11261;52.456;10.850;2022-12-26T15:08:33;0.60;;;0.60;;
22191;SDS011;11261;52.456;10.850;2022-12-26T15:11:22;0.70;;;0.70;;
22191;SDS011;11261;52.456;10.850;2022-12-26T15:14:33;1.05;;;0.60;;
22191;SDS011;11261;52.456;10.850;2022-12-26T15:17:21;2.00;;;0.80;;
22191;SDS011;11261;52.456;10.850;2022-12-26T15:20:04;0.93;;;0.80;;
22191;SDS011;11261;52.456;10.850;2022-12-26T15:32:00;1.80;;;0.90;;
22191;SDS011;11261;52.456;10.850;2022-12-26T15:34:44;1.67;;;0.82;;
22191;SDS011;11261;52.456;10.850;2022-12-26T15:37:21;0.93;;;0.57;;
22191;SDS011;11261;52.456;10.850;2022-12-26T15:40:04;3.25;;;0.80;;
22191;SDS011;11261;52.456;10.850;2022-12-26T15:42:43;2.88;;;0.95;;
22191;SDS011;11261;52.456;10.850;2022-12-26T15:45:23;1.00;;;0.80;;
22191;SDS011;11261;52.456;10.850;2022-12-26T15:48:02;0.98;;;0.70;;
22191;SDS011;11261;52.456;10.850;2022-12-26T15:50:41;2.55;;;0.75;;
22191;SDS011;11261;52.456;10.850;2022-12-26T15:53:21;2.25;;;0.70;;
22191;SDS011;11261;52.456;10.850;2022-12-26T15:56:00;1.85;;;0.55;;
22191;SDS011;11261;52.456;10.850;2022-12-26T15:58:50;3.20;;;0.50;;
22191;SDS011;11261;52.456;10.850;2022-12-26T16:01:34;2.15;;;0.57;;
22191;SDS011;11261;52.456;10.850;2022-12-26T16:04:06;2.60;;;0.50;;